Time;durP1;ratioP1;P1;durP2;ratioP2;P2;SDS_P1;SDS_P2;PMS_P1;PMS_P2;Temp;Humidity;BMP_temperature;BMP_pressure;BME280_temperature;BME280_humidity;BME280_pressure;Samples;Min_cycle;Max_cycle;Signal;HPM_P1;HPM_P2
2021/12/15 00:01:01;;;;;;;27.02;14.43;;;8.00;99.90;;;;;;7264394;32;20129;-83
2021/12/15 00:05:20;;;;;;;22.00;13.27;;;7.90;99.90;;;;;;7258559;32;20188;-81
2021/12/15 00:09:26;;;;;;;21.92;14.48;;;8.00;99.90;;;;;;7251496;32;20185;-81
2021/12/15 00:13:28;;;;;;;23.85;14.60;;;8.00;99.90;;;;;;7262629;32;20158;-81
2021/12/15 00:17:30;;;;;;;25.00;14.77;;;8.00;99.90;;;;;;7261150;32;20120;-81
2021/12/15 00:21:33;;;;;;;26.62;15.30;;;8.00;99.90;;;;;;7264595;32;20556;-81
2021/12/15 00:25:38;;;;;;;26.55;15.18;;;7.90;99.90;;;;;;7259199;32;20174;-81
2021/12/15 00:29:39;;;;;;;27.62;15.32;;;7.90;99.90;;;;;;7257871;32;20113;-81
2021/12/15 00:33:42;;;;;;;24.23;14.65;;;7.90;99.90;;;;;;7260607;32;20116;-81
2021/12/15 00:37:45;;;;;;;26.75;15.65;;;7.90;99.90;;;;;;7258747;32;20117;-83
2021/12/15 00:41:47;;;;;;;27.37;15.32;;;7.90;99.90;;;;;;7250682;32;20174;-80
2021/12/15 00:45:49;;;;;;;25.50;13.88;;;7.90;99.90;;;;;;7262227;32;20197;-81
2021/12/15 00:49:51;;;;;;;25.50;15.43;;;7.90;99.90;;;;;;7261391;32;20272;-81
2021/12/15 00:53:54;;;;;;;26.00;15.52;;;7.90;99.90;;;;;;7274847;32;20142;-80
2021/12/15 00:57:56;;;;;;;23.05;14.80;;;7.90;99.90;;;;;;7247146;32;20828;-81
2021/12/15 01:01:59;;;;;;;21.95;13.75;;;7.90;99.90;;;;;;7261337;32;20207;-81
2021/12/15 01:06:08;;;;;;;21.70;14.95;;;7.90;99.90;;;;;;7262577;32;20108;-81
2021/12/15 01:10:14;;;;;;;22.75;15.05;;;7.90;99.90;;;;;;7260586;32;20162;-81
2021/12/15 01:14:33;;;;;;;26.23;15.63;;;7.90;99.90;;;;;;7258966;32;20104;-81
2021/12/15 01:22:59;;;;;;;23.55;14.13;;;7.90;99.90;;;;;;7249539;32;20200;-81
2021/12/15 01:27:01;;;;;;;23.67;14.55;;;8.00;99.90;;;;;;7260802;32;20140;-82
2021/12/15 01:31:04;;;;;;;22.52;14.30;;;8.10;99.90;;;;;;7262079;32;20130;-80
2021/12/15 01:35:07;;;;;;;22.13;14.30;;;8.00;99.90;;;;;;7258996;32;20120;-81
2021/12/15 01:39:09;;;;;;;24.87;14.70;;;8.00;99.90;;;;;;7245349;32;20200;-81
2021/12/15 01:43:25;;;;;;;21.83;14.40;;;8.00;99.90;;;;;;7262056;32;20109;-80
2021/12/15 01:47:27;;;;;;;24.60;15.20;;;8.00;99.90;;;;;;7250461;32;20165;-82
2021/12/15 01:51:29;;;;;;;21.75;14.52;;;8.20;99.90;;;;;;7245813;32;20467;-80
2021/12/15 01:55:31;;;;;;;24.60;15.05;;;8.10;99.90;;;;;;7264082;32;20151;-81
2021/12/15 01:59:34;;;;;;;24.35;14.95;;;8.10;99.90;;;;;;7264110;32;20388;-80
2021/12/15 02:03:37;;;;;;;26.58;14.80;;;8.10;99.90;;;;;;7257953;32;22255;-80
2021/12/15 02:07:43;;;;;;;21.90;14.82;;;8.10;99.90;;;;;;7272536;32;20237;-81
2021/12/15 02:11:44;;;;;;;24.33;14.93;;;8.10;99.90;;;;;;7262698;32;20516;-81
2021/12/15 02:15:50;;;;;;;25.45;13.38;;;8.10;99.90;;;;;;7286217;32;20097;-82
2021/12/15 02:19:52;;;;;;;22.73;13.90;;;8.20;99.90;;;;;;7272895;32;20120;-79
2021/12/15 02:23:57;;;;;;;23.40;13.80;;;8.20;99.90;;;;;;7281421;32;20139;-81
2021/12/15 02:28:02;;;;;;;25.90;14.55;;;8.30;99.90;;;;;;7279380;32;20264;-81
2021/12/15 02:32:23;;;;;;;21.55;13.52;;;8.30;99.90;;;;;;7250253;32;20124;-80
2021/12/15 02:40:46;;;;;;;20.48;12.57;;;8.30;99.90;;;;;;7277608;32;20219;-80
2021/12/15 02:44:48;;;;;;;27.08;13.98;;;8.40;99.90;;;;;;7273021;32;20132;-80
2021/12/15 02:48:50;;;;;;;20.05;12.75;;;8.30;99.90;;;;;;7277266;32;20698;-81
2021/12/15 02:52:55;;;;;;;19.73;12.25;;;8.30;99.90;;;;;;7249359;32;20517;-80
2021/12/15 02:57:04;;;;;;;24.17;14.23;;;8.30;99.90;;;;;;7276830;32;20131;-80
2021/12/15 03:01:16;;;;;;;22.17;13.75;;;8.30;99.90;;;;;;7256876;32;20180;-81
2021/12/15 03:05:38;;;;;;;23.12;14.18;;;8.20;99.90;;;;;;7265283;32;20265;-79
2021/12/15 03:18:16;;;;;;;24.90;14.87;;;8.10;99.90;;;;;;7260778;32;20150;-81
2021/12/15 03:22:19;;;;;;;22.00;13.15;;;8.20;99.90;;;;;;7249729;32;20139;-81
2021/12/15 03:26:35;;;;;;;22.20;13.52;;;8.20;99.90;;;;;;7265770;32;20127;-81
2021/12/15 03:35:19;;;;;;;23.80;13.80;;;8.30;99.90;;;;;;7246360;32;20117;-81
2021/12/15 03:39:24;;;;;;;22.77;13.98;;;8.30;99.90;;;;;;7248805;32;20191;-80
2021/12/15 03:43:26;;;;;;;19.20;12.27;;;8.30;99.90;;;;;;7257425;32;20132;-81
2021/12/15 03:47:31;;;;;;;21.98;12.65;;;8.30;99.90;;;;;;7285125;32;20105;-79
2021/12/15 03:51:33;;;;;;;20.88;12.05;;;8.30;99.90;;;;;;7278187;32;20095;-80
2021/12/15 03:55:36;;;;;;;19.15;11.48;;;8.30;99.90;;;;;;7289421;32;20131;-80
2021/12/15 03:59:42;;;;;;;17.83;10.93;;;8.30;99.90;;;;;;7266529;32;20100;-80
2021/12/15 04:03:48;;;;;;;16.95;9.65;;;8.40;99.90;;;;;;7278237;32;20100;-80
2021/12/15 04:07:52;;;;;;;17.60;10.40;;;8.40;99.90;;;;;;7258707;32;20207;-80
2021/12/15 04:11:55;;;;;;;16.62;10.30;;;8.40;99.90;;;;;;7291041;32;20100;-80
2021/12/15 04:16:04;;;;;;;17.25;9.70;;;8.50;99.90;;;;;;7275068;32;20589;-80
2021/12/15 04:20:11;;;;;;;20.60;10.65;;;8.50;99.90;;;;;;7263745;32;20108;-80
2021/12/15 04:24:15;;;;;;;20.17;10.33;;;8.40;99.90;;;;;;7264421;32;20138;-80
2021/12/15 04:28:24;;;;;;;17.12;10.18;;;8.40;99.90;;;;;;7253545;32;20116;-80
2021/12/15 04:32:32;;;;;;;17.12;10.20;;;8.50;99.90;;;;;;7264586;32;20180;-80
2021/12/15 04:36:38;;;;;;;16.85;10.00;;;8.40;99.90;;;;;;7277913;32;20211;-78
2021/12/15 04:40:42;;;;;;;17.50;10.55;;;8.40;99.90;;;;;;7257194;32;20230;-79
2021/12/15 04:44:44;;;;;;;18.17;10.40;;;8.40;99.90;;;;;;7255444;32;20299;-79
2021/12/15 04:48:46;;;;;;;17.92;9.48;;;8.40;99.90;;;;;;7269999;32;20588;-78
2021/12/15 04:52:49;;;;;;;20.17;11.43;;;8.50;99.90;;;;;;7280798;32;20572;-79
2021/12/15 04:56:52;;;;;;;15.07;9.75;;;8.40;99.90;;;;;;7252673;32;20128;-79
2021/12/15 05:00:57;;;;;;;15.43;10.07;;;8.50;99.90;;;;;;7263497;32;20156;-79
2021/12/15 05:04:59;;;;;;;17.52;10.90;;;8.50;99.90;;;;;;7265069;32;20109;-79
2021/12/15 05:09:03;;;;;;;16.77;9.55;;;8.40;99.90;;;;;;7275792;32;20112;-78
2021/12/15 05:13:06;;;;;;;17.30;10.05;;;8.40;99.90;;;;;;7260165;32;20702;-80
2021/12/15 05:17:08;;;;;;;16.58;9.95;;;8.40;99.90;;;;;;7281642;32;20135;-79
2021/12/15 05:21:11;;;;;;;13.62;8.93;;;8.50;99.90;;;;;;7263227;32;20200;-79
2021/12/15 05:25:13;;;;;;;15.98;10.13;;;8.50;99.90;;;;;;7261810;32;20584;-80
2021/12/15 05:29:15;;;;;;;13.80;8.73;;;8.50;99.90;;;;;;7254012;32;20167;-79
2021/12/15 05:33:16;;;;;;;17.45;10.10;;;8.40;99.90;;;;;;7253548;32;20676;-80
2021/12/15 05:37:21;;;;;;;15.95;9.18;;;8.40;99.90;;;;;;7256673;32;20173;-79
2021/12/15 05:41:24;;;;;;;16.37;9.07;;;8.50;99.90;;;;;;7274268;32;20629;-77
2021/12/15 05:45:28;;;;;;;16.42;9.23;;;8.50;99.90;;;;;;7274597;32;20155;-76
2021/12/15 05:49:30;;;;;;;17.42;9.38;;;8.50;99.90;;;;;;7274787;32;20241;-78
2021/12/15 05:53:32;;;;;;;15.25;9.75;;;8.50;99.90;;;;;;7273551;32;20148;-79
2021/12/15 05:57:34;;;;;;;13.35;8.95;;;8.50;99.90;;;;;;7275943;32;20101;-79
2021/12/15 06:01:36;;;;;;;14.70;9.55;;;8.50;99.90;;;;;;7265858;32;20314;-79
2021/12/15 06:05:38;;;;;;;13.00;9.07;;;8.50;99.90;;;;;;7274801;32;20128;-79
2021/12/15 06:09:40;;;;;;;14.02;8.93;;;8.50;99.90;;;;;;7247338;32;20485;-79
2021/12/15 06:13:47;;;;;;;16.02;10.13;;;8.40;99.90;;;;;;7261668;32;20143;-80
2021/12/15 06:18:02;;;;;;;17.98;10.48;;;8.40;99.90;;;;;;7254742;32;20128;-80
2021/12/15 06:22:05;;;;;;;13.52;9.60;;;8.50;99.90;;;;;;7264187;32;20841;-80
2021/12/15 06:26:08;;;;;;;17.70;9.75;;;8.40;99.90;;;;;;7260781;32;20153;-80
2021/12/15 06:30:10;;;;;;;15.55;10.27;;;8.40;99.90;;;;;;7270077;32;20241;-79
2021/12/15 06:34:15;;;;;;;16.62;10.00;;;8.40;99.90;;;;;;7258392;32;20253;-79
2021/12/15 06:38:16;;;;;;;15.50;9.88;;;8.40;99.90;;;;;;7262295;32;20196;-79
2021/12/15 06:42:18;;;;;;;14.98;9.57;;;8.40;99.90;;;;;;7267436;32;20149;-80
2021/12/15 06:59:30;;;;;;;17.70;11.43;;;8.50;99.90;;;;;;7270614;32;20598;-79
2021/12/15 07:03:32;;;;;;;18.58;12.00;;;8.60;99.90;;;;;;7274998;32;20112;-80
2021/12/15 07:07:39;;;;;;;16.92;12.20;;;8.50;99.90;;;;;;7244014;32;20150;-78
2021/12/15 07:11:41;;;;;;;18.95;11.77;;;8.50;99.90;;;;;;7245293;32;20199;-78
2021/12/15 07:15:45;;;;;;;22.40;13.80;;;8.50;99.90;;;;;;7281676;32;20168;-79
2021/12/15 07:24:06;;;;;;;18.97;12.73;;;8.50;99.90;;;;;;7271017;32;20168;-80
2021/12/15 07:28:09;;;;;;;21.37;13.48;;;8.50;99.90;;;;;;7274582;32;20175;-79
2021/12/15 07:32:11;;;;;;;20.98;13.13;;;8.50;99.90;;;;;;7240807;32;20183;-80
2021/12/15 07:36:13;;;;;;;20.33;12.73;;;8.50;99.90;;;;;;7260531;32;20129;-81
2021/12/15 07:40:21;;;;;;;18.00;12.13;;;8.50;99.90;;;;;;7260660;32;20177;-80
2021/12/15 07:44:23;;;;;;;19.55;12.88;;;8.60;99.90;;;;;;7258013;32;20742;-79
2021/12/15 07:48:27;;;;;;;19.48;12.50;;;8.50;99.90;;;;;;7245400;32;20910;-79
2021/12/15 07:52:29;;;;;;;20.95;12.63;;;8.50;99.90;;;;;;7266640;32;20234;-79
2021/12/15 07:56:31;;;;;;;18.27;12.13;;;8.60;99.90;;;;;;7252326;32;20314;-77
2021/12/15 08:00:34;;;;;;;18.73;12.82;;;8.60;99.90;;;;;;7254112;32;20135;-77
2021/12/15 08:04:37;;;;;;;22.98;13.40;;;8.60;99.90;;;;;;7257980;32;20120;-77
2021/12/15 08:08:38;;;;;;;19.40;13.05;;;8.60;99.90;;;;;;7255651;32;20231;-77
2021/12/15 08:12:42;;;;;;;20.73;12.80;;;8.70;99.90;;;;;;7245904;32;20188;-77
2021/12/15 08:16:44;;;;;;;22.62;12.25;;;8.70;99.90;;;;;;7267622;32;20211;-78
2021/12/15 08:20:46;;;;;;;19.98;12.93;;;8.60;99.90;;;;;;7272369;32;20100;-79
2021/12/15 08:24:48;;;;;;;16.45;12.02;;;8.60;99.90;;;;;;7252105;32;20837;-81
2021/12/15 08:28:55;;;;;;;18.17;12.93;;;8.60;99.90;;;;;;7233207;32;20117;-79
2021/12/15 08:33:02;;;;;;;17.77;12.07;;;8.60;99.90;;;;;;7239264;32;20143;-81
2021/12/15 08:37:05;;;;;;;16.30;11.45;;;8.60;99.90;;;;;;7245184;32;20138;-80
2021/12/15 08:41:12;;;;;;;16.42;11.32;;;8.70;99.90;;;;;;7247936;32;20216;-81
2021/12/15 08:45:15;;;;;;;18.08;11.93;;;8.70;99.90;;;;;;7244299;32;20203;-80
2021/12/15 08:49:21;;;;;;;18.12;11.15;;;8.70;99.90;;;;;;7239452;32;20117;-81
2021/12/15 08:53:23;;;;;;;16.30;12.05;;;8.60;99.90;;;;;;7235851;32;20180;-82
2021/12/15 08:57:25;;;;;;;17.40;11.35;;;8.70;99.90;;;;;;7257055;32;20116;-82
2021/12/15 09:01:27;;;;;;;16.67;11.57;;;8.70;99.90;;;;;;7239664;32;20167;-81
2021/12/15 09:05:30;;;;;;;16.25;11.77;;;8.70;99.90;;;;;;7237634;32;20109;-82
2021/12/15 09:09:31;;;;;;;15.80;12.23;;;8.80;99.90;;;;;;7235595;32;20217;-81
2021/12/15 09:13:34;;;;;;;16.73;10.55;;;8.70;99.90;;;;;;7264225;32;20480;-82
2021/12/15 09:17:36;;;;;;;17.42;11.85;;;8.70;99.90;;;;;;7235767;32;20154;-82
2021/12/15 09:21:39;;;;;;;16.58;11.40;;;8.80;99.90;;;;;;7234605;32;20113;-81
2021/12/15 09:25:42;;;;;;;14.20;9.93;;;8.70;99.90;;;;;;7243873;32;20212;-82
2021/12/15 09:29:44;;;;;;;16.23;10.88;;;8.90;99.90;;;;;;7237204;32;20120;-82
2021/12/15 09:33:49;;;;;;;16.85;11.48;;;8.90;99.90;;;;;;7242714;32;20144;-82
2021/12/15 09:37:53;;;;;;;14.75;10.68;;;8.90;99.90;;;;;;7248946;32;20148;-83
2021/12/15 09:41:55;;;;;;;16.00;10.57;;;8.90;99.90;;;;;;7248578;32;20184;-82
2021/12/15 10:04:05;;;;;;;16.17;11.30;;;9.00;99.90;;;;;;7247865;32;20501;-80
2021/12/15 10:21:35;;;;;;;17.05;11.73;;;9.20;99.90;;;;;;7254106;32;20549;-80
2021/12/15 10:25:44;;;;;;;17.05;12.15;;;9.40;99.90;;;;;;7245089;32;20192;-80
2021/12/15 10:30:17;;;;;;;19.98;12.55;;;9.30;99.90;;;;;;7247743;32;20132;-81
2021/12/15 10:34:20;;;;;;;19.52;12.18;;;9.30;99.90;;;;;;7238928;32;20142;-81
2021/12/15 10:38:41;;;;;;;18.12;12.32;;;9.30;99.90;;;;;;7248348;32;20181;-82
2021/12/15 10:42:43;;;;;;;16.85;11.95;;;9.30;99.90;;;;;;7252395;32;20131;-81
2021/12/15 10:46:51;;;;;;;19.17;12.15;;;9.30;99.90;;;;;;7258679;32;20104;-83
2021/12/15 10:50:53;;;;;;;21.15;12.52;;;9.30;99.90;;;;;;7266270;32;20124;-82
2021/12/15 10:55:04;;;;;;;18.92;12.23;;;9.30;99.90;;;;;;7278643;32;20158;-83
2021/12/15 10:59:10;;;;;;;16.85;11.50;;;9.30;99.90;;;;;;7263442;32;20105;-83
2021/12/15 11:03:16;;;;;;;17.95;12.00;;;9.30;99.90;;;;;;7283358;32;20207;-83
2021/12/15 11:07:23;;;;;;;20.33;12.23;;;9.30;99.90;;;;;;7263273;32;20112;-83
2021/12/15 11:11:28;;;;;;;17.45;12.30;;;9.30;99.90;;;;;;7274142;32;20561;-80
2021/12/15 11:15:40;;;;;;;16.80;11.40;;;9.30;99.90;;;;;;7233172;32;20158;-83
2021/12/15 11:19:48;;;;;;;16.00;11.32;;;9.30;99.90;;;;;;7267330;32;20108;-83
2021/12/15 11:23:55;;;;;;;17.17;11.48;;;9.30;99.90;;;;;;7242115;32;20172;-83
2021/12/15 11:27:59;;;;;;;16.45;10.63;;;9.40;99.90;;;;;;7256175;32;20176;-82
2021/12/15 11:32:01;;;;;;;17.65;11.38;;;9.40;99.90;;;;;;7284641;32;20135;-80
2021/12/15 11:36:35;;;;;;;18.20;12.15;;;9.40;99.90;;;;;;7261127;32;20104;-81
2021/12/15 11:40:40;;;;;;;18.17;11.93;;;9.40;99.90;;;;;;7252921;32;20183;-79
2021/12/15 11:44:42;;;;;;;19.12;11.98;;;9.50;99.90;;;;;;7269976;32;20262;-80
2021/12/15 11:48:49;;;;;;;15.48;10.75;;;9.50;99.90;;;;;;7277217;32;20135;-80
2021/12/15 11:52:51;;;;;;;17.67;12.13;;;9.50;99.90;;;;;;7250042;32;20219;-82
2021/12/15 11:57:00;;;;;;;17.25;12.07;;;9.50;99.90;;;;;;7261156;32;20245;-81
2021/12/15 12:01:02;;;;;;;17.40;12.60;;;9.50;99.90;;;;;;7274786;32;20358;-80
2021/12/15 12:05:06;;;;;;;18.77;13.20;;;9.50;99.90;;;;;;7245547;32;20166;-84
2021/12/15 12:09:08;;;;;;;18.40;12.93;;;9.50;99.90;;;;;;7261653;32;20116;-82
2021/12/15 12:13:23;;;;;;;17.70;12.45;;;9.50;99.90;;;;;;7267416;32;20199;-80
2021/12/15 12:17:31;;;;;;;16.60;12.57;;;9.50;99.90;;;;;;7264866;32;20120;-80
2021/12/15 12:21:33;;;;;;;18.95;13.88;;;9.50;99.90;;;;;;7251669;32;20831;-80
2021/12/15 12:25:47;;;;;;;20.73;12.77;;;9.60;99.90;;;;;;7248114;32;20955;-81
2021/12/15 12:29:52;;;;;;;17.90;12.45;;;9.60;99.90;;;;;;7236045;32;20169;-81
2021/12/15 12:33:55;;;;;;;19.33;13.05;;;9.50;99.90;;;;;;7252904;32;20211;-80
2021/12/15 12:38:01;;;;;;;20.75;13.57;;;9.50;99.90;;;;;;7245897;32;20171;-80
2021/12/15 12:42:03;;;;;;;20.62;13.82;;;9.60;99.90;;;;;;7248116;32;20203;-79
2021/12/15 12:46:21;;;;;;;18.77;13.10;;;9.60;99.90;;;;;;7252545;32;20108;-80
2021/12/15 12:51:04;;;;;;;23.55;14.40;;;9.60;99.90;;;;;;7246067;32;20176;-80
2021/12/15 12:59:45;;;;;;;18.92;12.77;;;9.60;99.90;;;;;;7258648;32;20628;-79
2021/12/15 13:03:56;;;;;;;18.65;13.05;;;9.60;99.90;;;;;;7241475;32;20155;-80
2021/12/15 13:08:09;;;;;;;19.73;13.82;;;9.60;99.90;;;;;;7265595;32;20132;-81
2021/12/15 13:12:40;;;;;;;21.83;14.18;;;9.70;99.90;;;;;;7239090;32;20124;-80
2021/12/15 13:16:51;;;;;;;22.50;14.25;;;9.60;99.90;;;;;;7245972;32;20254;-79
2021/12/15 13:21:00;;;;;;;21.37;14.48;;;9.60;99.90;;;;;;7242099;32;20203;-79
2021/12/15 13:29:53;;;;;;;23.70;14.57;;;9.70;99.90;;;;;;7260716;32;20117;-79
2021/12/15 13:34:00;;;;;;;20.35;13.68;;;9.80;99.90;;;;;;7266150;32;20163;-80
2021/12/15 13:38:03;;;;;;;23.30;14.15;;;9.90;99.90;;;;;;7269099;32;20854;-79
2021/12/15 13:42:11;;;;;;;21.60;13.55;;;10.00;99.90;;;;;;7265943;32;20180;-80
2021/12/15 13:46:23;;;;;;;24.00;14.70;;;10.10;99.90;;;;;;7235748;32;20177;-79
2021/12/15 13:50:29;;;;;;;22.33;14.45;;;10.00;99.90;;;;;;7271935;32;20138;-80
2021/12/15 13:54:35;;;;;;;23.00;13.90;;;9.90;99.90;;;;;;7240939;32;20270;-81
2021/12/15 13:58:37;;;;;;;23.33;15.35;;;9.90;99.90;;;;;;7236482;32;20173;-81
2021/12/15 14:02:52;;;;;;;23.67;16.17;;;9.90;99.90;;;;;;7244867;32;20121;-80
2021/12/15 14:06:54;;;;;;;27.30;16.80;;;9.80;99.90;;;;;;7259328;32;20057;-81
2021/12/15 14:11:06;;;;;;;25.15;15.30;;;9.80;99.90;;;;;;7260467;32;20573;-81
2021/12/15 14:15:09;;;;;;;26.12;15.35;;;9.80;99.90;;;;;;7243212;32;20170;-81
2021/12/15 14:19:20;;;;;;;26.40;16.65;;;9.80;99.90;;;;;;7241057;32;20485;-82
2021/12/15 14:23:29;;;;;;;26.92;17.17;;;9.80;99.90;;;;;;7269397;32;20108;-81
2021/12/15 14:27:31;;;;;;;27.30;16.92;;;9.60;99.90;;;;;;7262492;32;20791;-80
2021/12/15 14:31:36;;;;;;;29.00;16.67;;;9.60;99.90;;;;;;7266988;32;20309;-81
2021/12/15 14:35:38;;;;;;;30.27;17.35;;;9.70;99.90;;;;;;7263238;32;20158;-80
2021/12/15 14:39:46;;;;;;;27.90;18.23;;;9.70;99.90;;;;;;7253801;32;20587;-79
2021/12/15 14:43:54;;;;;;;28.55;17.23;;;9.60;99.90;;;;;;7252724;32;20175;-78
2021/12/15 14:47:57;;;;;;;27.65;17.80;;;9.50;99.90;;;;;;7233406;32;20108;-79
2021/12/15 14:52:09;;;;;;;27.02;17.98;;;9.60;99.90;;;;;;7267461;32;20109;-80
2021/12/15 14:56:12;;;;;;;28.48;16.58;;;9.50;99.90;;;;;;7255713;32;21675;-80
2021/12/15 15:00:21;;;;;;;28.55;18.33;;;9.40;99.90;;;;;;7230819;32;20202;-80
2021/12/15 15:04:26;;;;;;;31.48;17.62;;;9.40;99.90;;;;;;7247165;32;20546;-80
2021/12/15 15:08:32;;;;;;;29.05;19.50;;;9.40;99.90;;;;;;7241634;32;20219;-79
2021/12/15 15:12:37;;;;;;;29.42;17.75;;;9.40;99.90;;;;;;7267280;32;20112;-79
2021/12/15 15:16:40;;;;;;;28.83;17.67;;;9.30;99.90;;;;;;7252347;32;20113;-79
2021/12/15 15:20:59;;;;;;;28.40;18.43;;;9.40;99.90;;;;;;7251867;32;20175;-80
2021/12/15 15:25:06;;;;;;;27.50;17.60;;;9.40;99.90;;;;;;7253763;32;20120;-80
2021/12/15 15:29:08;;;;;;;29.58;19.52;;;9.30;99.90;;;;;;7262485;32;20108;-78
2021/12/15 15:33:15;;;;;;;25.62;17.87;;;9.30;99.90;;;;;;7251373;32;20128;-80
2021/12/15 15:37:32;;;;;;;31.23;19.15;;;9.30;99.90;;;;;;7268051;32;20131;-79
2021/12/15 15:41:35;;;;;;;27.83;17.60;;;9.40;99.90;;;;;;7248521;32;20822;-77
2021/12/15 15:45:52;;;;;;;30.42;18.58;;;9.40;99.90;;;;;;7253894;32;20286;-77
2021/12/15 15:50:06;;;;;;;30.58;18.62;;;9.40;99.90;;;;;;7240914;32;20140;-76
2021/12/15 15:54:22;;;;;;;26.15;17.73;;;9.40;99.90;;;;;;7255565;32;20173;-76
2021/12/15 15:58:30;;;;;;;23.52;16.35;;;9.30;99.90;;;;;;7246815;32;20760;-78
2021/12/15 16:02:33;;;;;;;23.83;17.95;;;9.30;99.90;;;;;;7266071;32;20263;-81
2021/12/15 16:06:36;;;;;;;26.85;17.45;;;9.30;99.90;;;;;;7264211;32;20116;-80
2021/12/15 16:10:43;;;;;;;26.00;18.12;;;9.30;99.90;;;;;;7252468;32;20128;-80
2021/12/15 16:14:49;;;;;;;28.08;18.50;;;9.20;99.90;;;;;;7245428;32;20148;-81
2021/12/15 16:19:00;;;;;;;25.92;18.90;;;9.10;99.90;;;;;;7273548;32;20195;-80
2021/12/15 16:23:03;;;;;;;24.45;18.10;;;9.10;99.90;;;;;;7266784;32;20105;-79
2021/12/15 16:27:07;;;;;;;23.70;18.08;;;9.30;99.90;;;;;;7288127;32;20112;-80
2021/12/15 16:31:12;;;;;;;28.95;18.42;;;9.20;99.90;;;;;;7287099;32;21836;-80
2021/12/15 16:35:21;;;;;;;25.15;17.83;;;9.10;99.90;;;;;;7285574;32;20108;-80
2021/12/15 16:39:41;;;;;;;27.90;19.65;;;9.10;99.90;;;;;;7271407;32;20536;-80
2021/12/15 16:43:48;;;;;;;26.67;18.67;;;9.20;99.90;;;;;;7267333;32;20215;-80
2021/12/15 16:47:50;;;;;;;;;;;9.20;99.90;;;;;;7256273;32;20104;-80
2021/12/15 16:52:16;;;;;;;28.15;18.98;;;9.10;99.90;;;;;;7269428;32;20020;-79
2021/12/15 16:56:43;;;;;;;27.92;19.50;;;9.10;99.90;;;;;;7252589;32;20109;-80
2021/12/15 17:00:45;;;;;;;30.50;20.20;;;9.10;99.90;;;;;;7264001;32;20116;-80
2021/12/15 17:04:52;;;;;;;31.83;19.30;;;9.10;99.90;;;;;;7248596;32;20132;-81
2021/12/15 17:08:53;;;;;;;26.83;20.10;;;9.10;99.90;;;;;;7280170;32;20202;-80
2021/12/15 17:13:05;;;;;;;28.77;19.60;;;9.10;99.90;;;;;;7278143;32;20053;-80
2021/12/15 17:17:07;;;;;;;31.25;20.50;;;9.20;99.90;;;;;;7268721;32;20061;-80
2021/12/15 17:21:11;;;;;;;29.58;21.48;;;9.20;99.90;;;;;;7293032;32;20102;-80
2021/12/15 17:25:31;;;;;;;31.17;21.05;;;9.10;99.90;;;;;;7291306;32;20219;-79
2021/12/15 17:29:34;;;;;;;28.98;20.45;;;9.20;99.90;;;;;;7282382;32;20245;-79
2021/12/15 17:33:42;;;;;;;31.65;20.98;;;9.10;99.90;;;;;;7279615;32;20058;-80
2021/12/15 17:37:44;;;;;;;33.95;22.73;;;9.10;99.90;;;;;;7296721;32;20199;-78
2021/12/15 17:42:09;;;;;;;33.83;22.25;;;9.20;99.90;;;;;;7282485;32;20053;-79
2021/12/15 17:46:32;;;;;;;33.90;21.30;;;9.20;99.90;;;;;;7295209;32;20083;-79
2021/12/15 17:50:36;;;;;;;32.60;22.35;;;9.10;99.90;;;;;;7266670;32;20221;-80
2021/12/15 17:54:43;;;;;;;33.13;22.20;;;9.10;99.90;;;;;;7259841;32;20143;-80
2021/12/15 17:58:48;;;;;;;34.13;22.42;;;9.20;99.90;;;;;;7251774;32;20177;-80
2021/12/15 18:02:50;;;;;;;35.72;22.95;;;9.20;99.90;;;;;;7238036;32;20525;-80
2021/12/15 18:06:53;;;;;;;30.58;22.17;;;9.10;99.90;;;;;;7257186;32;20169;-80
2021/12/15 18:11:06;;;;;;;32.92;20.92;;;9.20;99.90;;;;;;7266317;32;20184;-80
2021/12/15 18:15:09;;;;;;;32.90;22.30;;;9.20;99.90;;;;;;7261278;32;20168;-81
2021/12/15 18:19:11;;;;;;;37.03;24.33;;;9.20;99.90;;;;;;7252833;32;20366;-80
2021/12/15 18:23:14;;;;;;;35.08;23.30;;;9.10;99.90;;;;;;7276309;32;20592;-80
2021/12/15 18:27:17;;;;;;;36.38;23.33;;;9.10;99.90;;;;;;7262760;32;20113;-79
2021/12/15 18:31:21;;;;;;;35.65;23.73;;;9.10;99.90;;;;;;7247480;32;20529;-79
2021/12/15 18:35:23;;;;;;;37.85;24.17;;;9.10;99.90;;;;;;7270859;32;20508;-79
2021/12/15 18:39:29;;;;;;;35.85;23.50;;;9.10;99.90;;;;;;7233039;32;20112;-79
2021/12/15 18:43:38;;;;;;;35.60;23.17;;;9.10;99.90;;;;;;7248970;32;20139;-79
2021/12/15 18:47:42;;;;;;;34.33;23.60;;;9.20;99.90;;;;;;7248467;32;20152;-79
2021/12/15 18:51:45;;;;;;;38.53;25.65;;;9.20;99.90;;;;;;7273049;32;20191;-79
2021/12/15 18:55:46;;;;;;;40.60;24.67;;;9.20;99.90;;;;;;7262511;32;20162;-79
2021/12/15 18:59:48;;;;;;;39.83;25.50;;;9.20;99.90;;;;;;7255307;32;20147;-79
2021/12/15 19:03:52;;;;;;;39.28;25.52;;;9.20;99.90;;;;;;7249920;32;20142;-80
2021/12/15 19:07:54;;;;;;;39.25;24.35;;;9.30;99.90;;;;;;7256231;32;20199;-80
2021/12/15 19:11:57;;;;;;;38.40;24.58;;;9.30;99.90;;;;;;7251414;32;20190;-81
2021/12/15 19:16:03;;;;;;;39.45;25.85;;;9.20;99.90;;;;;;7278863;32;20100;-80
2021/12/15 19:20:10;;;;;;;38.97;25.23;;;9.30;99.90;;;;;;7281146;32;20116;-80
2021/12/15 19:24:11;;;;;;;43.80;26.80;;;9.20;99.90;;;;;;7252119;32;20438;-81
2021/12/15 19:28:14;;;;;;;43.40;26.02;;;9.20;99.90;;;;;;7243581;32;20125;-80
2021/12/15 19:32:16;;;;;;;41.15;27.58;;;9.20;99.90;;;;;;7249349;32;20184;-80
2021/12/15 19:36:19;;;;;;;40.25;25.70;;;9.10;99.90;;;;;;7250456;32;20127;-81
2021/12/15 19:40:23;;;;;;;41.30;26.25;;;9.20;99.90;;;;;;7263156;32;20182;-80
2021/12/15 19:44:25;;;;;;;42.92;26.20;;;9.20;99.90;;;;;;7268614;32;20204;-80
2021/12/15 19:48:27;;;;;;;43.55;26.15;;;9.20;99.90;;;;;;7263404;32;20108;-80
2021/12/15 19:52:29;;;;;;;42.92;25.98;;;9.20;99.90;;;;;;7276760;32;20101;-80
2021/12/15 19:56:30;;;;;;;46.15;26.75;;;9.20;99.90;;;;;;7261629;32;20139;-81
2021/12/15 20:00:35;;;;;;;46.88;27.15;;;9.20;99.90;;;;;;7261393;32;20164;-80
2021/12/15 20:04:38;;;;;;;45.97;26.37;;;9.20;99.90;;;;;;7270163;32;20535;-79
2021/12/15 20:08:41;;;;;;;42.97;26.45;;;9.10;99.90;;;;;;7248616;32;20120;-80
2021/12/15 20:12:42;;;;;;;46.47;27.00;;;9.10;99.90;;;;;;7273357;32;20514;-81
2021/12/15 20:16:48;;;;;;;45.67;27.62;;;9.10;99.90;;;;;;7247894;32;20203;-82
2021/12/15 20:20:50;;;;;;;46.88;26.77;;;9.10;99.90;;;;;;7274076;32;20112;-80
2021/12/15 20:24:53;;;;;;;46.58;27.87;;;9.10;99.90;;;;;;7249191;32;20169;-82
2021/12/15 20:28:55;;;;;;;46.85;27.95;;;9.10;99.90;;;;;;7262046;32;20174;-81
2021/12/15 20:32:59;;;;;;;46.35;27.70;;;9.20;99.90;;;;;;7260738;32;20134;-81
2021/12/15 20:37:01;;;;;;;48.58;28.12;;;9.20;99.90;;;;;;7248248;32;20450;-80
2021/12/15 20:41:07;;;;;;;46.85;27.50;;;9.20;99.90;;;;;;7245431;32;20163;-81
2021/12/15 20:45:12;;;;;;;48.92;26.95;;;9.20;99.90;;;;;;7258581;32;20313;-80
2021/12/15 20:49:14;;;;;;;46.33;27.75;;;9.20;99.90;;;;;;7268309;32;20131;-81
2021/12/15 20:53:20;;;;;;;46.75;27.37;;;9.20;99.90;;;;;;7239121;32;20124;-81
2021/12/15 20:57:21;;;;;;;48.42;28.58;;;9.20;99.90;;;;;;7244500;32;20128;-80
2021/12/15 21:01:24;;;;;;;47.50;28.83;;;9.20;99.90;;;;;;7267659;32;20125;-81
2021/12/15 21:05:33;;;;;;;53.17;29.08;;;9.10;99.90;;;;;;7266850;32;20170;-80
2021/12/15 21:09:40;;;;;;;49.17;28.48;;;9.00;99.90;;;;;;7261186;32;20136;-80
2021/12/15 21:13:43;;;;;;;54.88;30.05;;;9.00;99.90;;;;;;7255553;32;20120;-81
2021/12/15 21:17:45;;;;;;;53.83;29.17;;;9.00;99.90;;;;;;7272317;32;20247;-81
2021/12/15 21:21:49;;;;;;;56.80;29.65;;;9.10;99.90;;;;;;7269890;32;20777;-80
2021/12/15 21:25:55;;;;;;;50.17;29.70;;;9.10;99.90;;;;;;7273394;32;20112;-80
2021/12/15 21:30:02;;;;;;;49.20;27.45;;;9.00;99.90;;;;;;7252119;32;20152;-79
2021/12/15 21:34:04;;;;;;;;;;;9.00;99.90;;;;;;7259200;32;20120;-79
2021/12/15 21:38:07;;;;;;;54.15;29.87;;;8.90;99.90;;;;;;7253213;32;20126;-80
2021/12/15 21:42:11;;;;;;;49.35;28.73;;;9.00;99.90;;;;;;7242221;32;20273;-80
2021/12/15 21:46:13;;;;;;;47.05;29.00;;;8.90;99.90;;;;;;7257588;32;20131;-84
2021/12/15 21:50:17;;;;;;;55.83;31.45;;;8.90;99.90;;;;;;7247952;32;20112;-84
2021/12/15 21:54:19;;;;;;;48.25;28.38;;;8.90;99.90;;;;;;7263026;32;20115;-82
2021/12/15 21:58:27;;;;;;;51.55;29.75;;;8.80;99.90;;;;;;7273499;32;20116;-83
2021/12/15 22:02:29;;;;;;;55.53;31.37;;;8.90;99.90;;;;;;7254825;32;20151;-82
2021/12/15 22:06:31;;;;;;;55.85;29.90;;;8.90;99.90;;;;;;7278954;32;20185;-84
2021/12/15 22:10:33;;;;;;;55.17;29.83;;;8.90;99.90;;;;;;7263671;32;20169;-84
2021/12/15 22:14:35;;;;;;;50.55;29.83;;;8.80;99.90;;;;;;7242437;32;20208;-84
2021/12/15 22:18:41;;;;;;;51.42;30.55;;;8.80;99.90;;;;;;7261792;32;20136;-83
2021/12/15 22:22:43;;;;;;;50.05;29.98;;;8.90;99.90;;;;;;7264869;32;20129;-84